Lander, WY (82520)

2:58 AM MST on January 17, 2017 (GMT -0700)
Mt. Arder Estates | | Change Station
Active Advisory: Special Statement

Elev 5873 ft 42.84 °N, 108.79 °W | Updated 12 seconds ago

Partly Cloudy
Partly Cloudy
11.8 °F
Feels Like 12 °F
N
0.0
Wind Variable Wind from South
Gusts 0.0 mph

Today
High -- | Low -- °F
--% Chance of Precip.
Yesterday
High -- | Low -- °F
Precip. -- in
Pressure 30.28 in
Visibility 7.0 miles
Clouds Clear
Windchill 12 °F
Dew Point -2 °F
Humidity 54%
Rainfall 0.00 in
Snow Depth Not available.
7:41 AM 5:09 PM
Waning Gibbous, 74% visible
METAR KLND 170953Z AUTO 32003KT 7SM CLR M17/M18 A3004 RMK AO2 SLP254 T11671183
Pressure 30.28 in
Visibility 7.0 miles
Clouds Clear
Windchill 12 °F
Dew Point -2 °F
Humidity 54%
Rainfall 0.00 in
Snow Depth Not available.
7:41 AM 5:09 PM
Waning Gibbous, 74% visible
METAR KLND 170953Z AUTO 32003KT 7SM CLR M17/M18 A3004 RMK AO2 SLP254 T11671183

Get Your Daily Forecast Email!

Thanks for signing up!

Be on the lookout for a verification email in your inbox.

You'll start receiving the daily forecast at 8 AM.

×

10-Day Weather Forecast

Almanac

Astronomy

Jan. 17, 2017 Rise Set
Actual Time
Civil Twilight
Nautical Twilight
Astronomical Twilight
Moon
Length of Visible Light
Length of Day
Tomorrow will be .
, % of the Moon is Illuminated

Today's Extremes

State Highs State Lows

Community

WunderPhotos

Upload Photos

1,962,540 photos uploaded!

WunderBlog® & News

Nearby

Air Quality

  Air Quality AQ Index Pollutant
Not available.

Snow Depth

Station Depth Elevation

Earthquake Activity

City Distance Mag. Time & Date
Minimum magnitude displayed is 2.5.

Coastal Water Temperatures

Place Temperature

Stations

Nearby Weather Stations

Station Location Temp. Windchill Dew Point Humidity Wind Precip. Elev Updated Type
                   

Watches & Warnings

Special Statement
Issued: 12:57 AM MST Jan. 17, 2017 – National Weather Service

... Dense fog possible this morning...

Areas of fog with visibilities under one half mile may develop
across the Wind River basin and lower parts of the Lander
foothills this morning. Travelers should be alert for areas of
sharply reduced visibility under one half mile. Some spots around
the Wind River basin may have visibilities under one quarter
mile at times.



1257 am MST Tue Jan 17 2017

... Dense fog possible this morning...

Areas of fog with visibilities under one half mile may develop
across the Wind River basin and lower parts of the Lander
foothills this morning. Travelers should be alert for areas of
sharply reduced visibility under one half mile. Some spots around
the Wind River basin may have visibilities under one quarter
mile at times.